Marchicora — V2OQ7 — position and weather

sailwx.info

Track history (hours):
 
Tides and Currents Weather Stations Pressure Air Temp Water Temp Dewpoint Dewpoint Depression Visibility Wind Speed Wind Dir Waves Ship Positions

Marchicora

Last reported at 2015-Jun-19 11:32 UTC. Time now 2015-Jul-05 23:20 UTC.
Position N 57°05' E 017°32'.
Warning: this ship's position is 16 days out of date.

Length 153 m; draft 9.8 m.

Type: Cargo ship. MMSI: 304653000.

Date/timePositionNaut miles runAvg speedWind from/ knotsBaromVisibWave heightAir tempDewpointWater temp
2015-Jun-19 11:32N 57°05' E 017°32'11212.2
2015-Jun-19 02:21N 55°38' E 015°24'1113.2
2015-Jun-19 01:33N 55°33' E 015°08'1313.2
2015-Jun-19 00:33N 55°26' E 014°48'1312.9
2015-Jun-18 23:33N 55°18' E 014°31'1313.0
2015-Jun-18 22:33N 55°07' E 014°17'6912.7
2015-Jun-18 17:06N 54°38' E 012°27'1912.0
2015-Jun-18 15:33N 54°24' E 012°06'1313.2
2015-Jun-18 14:34N 54°25' E 011°44'1313.3
2015-Jun-18 13:33N 54°31' E 011°23'1313.4
2015-Jun-18 12:33N 54°37' E 011°03'1211.6
2015-Jun-18 11:30N 54°48' E 010°52'1212.1
2015-Jun-18 10:32N 54°59' E 010°59'10411.5
2015-Jun-18 01:33N 56°39' E 011°46'1111.5
2015-Jun-18 00:34N 56°50' E 011°49'1313.1
2015-Jun-17 23:33N 57°02' E 011°41'1313.0
2015-Jun-17 22:33N 57°15' E 011°33'1313.4
2015-Jun-17 21:33N 57°27' E 011°23'1312.9
2015-Jun-17 20:34N 57°33' E 011°03'1313.0
2015-Jun-17 19:33N 57°40' E 010°41'2 1.4
2015-Jun-17 18:25N 57°41' E 010°39'0 0.0
2015-Jun-17 15:12N 57°41' E 010°39'3 4.5
2015-Jun-17 14:32N 57°43' E 010°43'27910.5
2015-Jun-16 12:06N 54°20' E 005°01'812.4
2015-Jun-16 11:29N 54°14' E 004°54'1212.4
2015-Jun-16 10:32N 54°05' E 004°41'13312.9
2015-Jun-16 00:15N 52°06' E 003°03'2412.9
2015-Jun-15 22:21N 51°47' E 002°38'1011.9
2015-Jun-15 21:33N 51°40' E 002°28'1111.2
2015-Jun-15 20:33N 51°31' E 002°17'1010.4
2015-Jun-15 19:33N 51°22' E 002°10'10 9.8
2015-Jun-15 18:34N 51°13' E 002°01'10 9.7
2015-Jun-15 17:33N 51°08' E 001°48'10 9.8
2015-Jun-15 16:33N 51°01' E 001°37'1010.3
2015-Jun-15 15:33N 50°53' E 001°27'1111.3
2015-Jun-15 14:33N 50°42' E 001°21'1211.3
2015-Jun-15 13:32N 50°35' E 001°07'17212.8
2015-Jun-15 00:06N 49°43' W 003°09'  
2015-Jun-12 16:33N 39°26' W 009°51'1313.0
2015-Jun-12 15:33N 39°13' W 009°51'1312.6
2015-Jun-12 14:33N 39°01' W 009°52'1312.6
2015-Jun-12 13:33N 38°48' W 009°52'1312.8
2015-Jun-12 12:33N 38°35' W 009°49'1312.9
2015-Jun-12 11:31N 38°22' W 009°46'1213.0
2015-Jun-12 10:33N 38°10' W 009°42'1312.8
2015-Jun-12 09:33N 37°57' W 009°38'1312.9
2015-Jun-12 08:33N 37°45' W 009°35'1413.0
2015-Jun-12 07:28N 37°31' W 009°31'5911.7
2015-Jun-12 02:28N 36°40' W 008°54'1312.9
2015-Jun-12 01:30N 36°37' W 008°39'1213.0
2015-Jun-12 00:33N 36°33' W 008°25'14411.8
2015-Jun-11 12:22N 35°59' W 005°30'8 9.3
2015-Jun-11 11:33N 36°05' W 005°24'1 0.6
2015-Jun-11 09:32N 36°06' W 005°25'0 0.0
2015-Jun-11 08:32N 36°06' W 005°25'0 0.0
2015-Jun-11 07:32N 36°06' W 005°25'1 1.4
2015-Jun-11 06:32N 36°06' W 005°23'8 7.9
2015-Jun-11 05:33N 36°03' W 005°15'12011.4
2015-Jun-10 19:06N 36°22' W 002°48'712.5
2015-Jun-10 18:33N 36°23' W 002°40'1312.5
2015-Jun-10 17:33N 36°25' W 002°24'1312.9
2015-Jun-10 16:31N 36°27' W 002°08'1313.2
2015-Jun-10 15:31N 36°30' W 001°52'1313.3
2015-Jun-10 14:32N 36°32' W 001°36'1413.2
2015-Jun-10 13:29N 36°35' W 001°19'1613.0
2015-Jun-10 12:15N 36°38' W 000°59'913.1
2015-Jun-10 11:33N 36°40' W 000°48'1313.4
2015-Jun-10 10:33N 36°43' W 000°32'1313.5
2015-Jun-10 09:33N 36°45' W 000°15'1313.3
2015-Jun-10 08:33N 36°48' E 000°01'1313.1
2015-Jun-10 07:33N 36°50' E 000°17'1312.7
2015-Jun-10 06:33N 36°53' E 000°33'1312.7
2015-Jun-10 05:33N 36°55' E 000°48'1312.5
2015-Jun-10 04:30N 36°58' E 001°04'1212.8
2015-Jun-10 03:32N 37°01' E 001°19'1312.8
2015-Jun-10 02:33N 37°03' E 001°35'1312.9
2015-Jun-10 01:33N 37°05' E 001°51'1512.9
2015-Jun-10 00:24N 37°08' E 002°09'1112.9
2015-Jun-09 23:33N 37°10' E 002°22'1312.7
2015-Jun-09 22:33N 37°13' E 002°38'1612.5
2015-Jun-09 21:17N 37°16' E 002°58'1112.7
2015-Jun-09 20:25N 37°18' E 003°11'1112.9
2015-Jun-09 19:33N 37°20' E 003°25'1313.0
2015-Jun-09 18:31N 37°23' E 003°41'1313.1
2015-Jun-09 17:33N 37°26' E 003°57'  
Track history (hours):
 
Tides and Currents Weather Stations Pressure Air Temp Water Temp Dewpoint Dewpoint Depression Visibility Wind Speed Wind Dir Waves Ship Positions

Marchicora

Last reported at 2015-Jun-19 11:32 UTC. Time now 2015-Jul-05 23:20 UTC.
Position N 57°05' E 017°32'.
Warning: this ship's position is 16 days out of date.

Length 153 m; draft 9.8 m.

Type: Cargo ship. MMSI: 304653000.

Date/timePositionNaut miles runAvg speedWind from/ knotsBaromVisibWave heightAir tempDewpointWater temp
2015-Jun-19 11:32N 57°05' E 017°32'11212.2
2015-Jun-19 02:21N 55°38' E 015°24'1113.2
2015-Jun-19 01:33N 55°33' E 015°08'1313.2
2015-Jun-19 00:33N 55°26' E 014°48'1312.9
2015-Jun-18 23:33N 55°18' E 014°31'1313.0
2015-Jun-18 22:33N 55°07' E 014°17'6912.7
2015-Jun-18 17:06N 54°38' E 012°27'1912.0
2015-Jun-18 15:33N 54°24' E 012°06'1313.2
2015-Jun-18 14:34N 54°25' E 011°44'1313.3
2015-Jun-18 13:33N 54°31' E 011°23'1313.4
2015-Jun-18 12:33N 54°37' E 011°03'1211.6
2015-Jun-18 11:30N 54°48' E 010°52'1212.1
2015-Jun-18 10:32N 54°59' E 010°59'10411.5
2015-Jun-18 01:33N 56°39' E 011°46'1111.5
2015-Jun-18 00:34N 56°50' E 011°49'1313.1
2015-Jun-17 23:33N 57°02' E 011°41'1313.0
2015-Jun-17 22:33N 57°15' E 011°33'1313.4
2015-Jun-17 21:33N 57°27' E 011°23'1312.9
2015-Jun-17 20:34N 57°33' E 011°03'1313.0
2015-Jun-17 19:33N 57°40' E 010°41'2 1.4
2015-Jun-17 18:25N 57°41' E 010°39'0 0.0
2015-Jun-17 15:12N 57°41' E 010°39'3 4.5
2015-Jun-17 14:32N 57°43' E 010°43'27910.5
2015-Jun-16 12:06N 54°20' E 005°01'812.4
2015-Jun-16 11:29N 54°14' E 004°54'1212.4
2015-Jun-16 10:32N 54°05' E 004°41'13312.9
2015-Jun-16 00:15N 52°06' E 003°03'2412.9
2015-Jun-15 22:21N 51°47' E 002°38'1011.9
2015-Jun-15 21:33N 51°40' E 002°28'1111.2
2015-Jun-15 20:33N 51°31' E 002°17'1010.4
2015-Jun-15 19:33N 51°22' E 002°10'10 9.8
2015-Jun-15 18:34N 51°13' E 002°01'10 9.7
2015-Jun-15 17:33N 51°08' E 001°48'10 9.8
2015-Jun-15 16:33N 51°01' E 001°37'1010.3
2015-Jun-15 15:33N 50°53' E 001°27'1111.3
2015-Jun-15 14:33N 50°42' E 001°21'1211.3
2015-Jun-15 13:32N 50°35' E 001°07'17212.8
2015-Jun-15 00:06N 49°43' W 003°09'  
2015-Jun-12 16:33N 39°26' W 009°51'1313.0
2015-Jun-12 15:33N 39°13' W 009°51'1312.6
2015-Jun-12 14:33N 39°01' W 009°52'1312.6
2015-Jun-12 13:33N 38°48' W 009°52'1312.8
2015-Jun-12 12:33N 38°35' W 009°49'1312.9
2015-Jun-12 11:31N 38°22' W 009°46'1213.0
2015-Jun-12 10:33N 38°10' W 009°42'1312.8
2015-Jun-12 09:33N 37°57' W 009°38'1312.9
2015-Jun-12 08:33N 37°45' W 009°35'1413.0
2015-Jun-12 07:28N 37°31' W 009°31'5911.7
2015-Jun-12 02:28N 36°40' W 008°54'1312.9
2015-Jun-12 01:30N 36°37' W 008°39'1213.0
2015-Jun-12 00:33N 36°33' W 008°25'14411.8
2015-Jun-11 12:22N 35°59' W 005°30'8 9.3
2015-Jun-11 11:33N 36°05' W 005°24'1 0.6
2015-Jun-11 09:32N 36°06' W 005°25'0 0.0
2015-Jun-11 08:32N 36°06' W 005°25'0 0.0
2015-Jun-11 07:32N 36°06' W 005°25'1 1.4
2015-Jun-11 06:32N 36°06' W 005°23'8 7.9
2015-Jun-11 05:33N 36°03' W 005°15'12011.4
2015-Jun-10 19:06N 36°22' W 002°48'712.5
2015-Jun-10 18:33N 36°23' W 002°40'1312.5
2015-Jun-10 17:33N 36°25' W 002°24'1312.9
2015-Jun-10 16:31N 36°27' W 002°08'1313.2
2015-Jun-10 15:31N 36°30' W 001°52'1313.3
2015-Jun-10 14:32N 36°32' W 001°36'1413.2
2015-Jun-10 13:29N 36°35' W 001°19'1613.0
2015-Jun-10 12:15N 36°38' W 000°59'913.1
2015-Jun-10 11:33N 36°40' W 000°48'1313.4
2015-Jun-10 10:33N 36°43' W 000°32'1313.5
2015-Jun-10 09:33N 36°45' W 000°15'1313.3
2015-Jun-10 08:33N 36°48' E 000°01'1313.1
2015-Jun-10 07:33N 36°50' E 000°17'1312.7
2015-Jun-10 06:33N 36°53' E 000°33'1312.7
2015-Jun-10 05:33N 36°55' E 000°48'1312.5
2015-Jun-10 04:30N 36°58' E 001°04'1212.8
2015-Jun-10 03:32N 37°01' E 001°19'1312.8
2015-Jun-10 02:33N 37°03' E 001°35'1312.9
2015-Jun-10 01:33N 37°05' E 001°51'1512.9
2015-Jun-10 00:24N 37°08' E 002°09'1112.9
2015-Jun-09 23:33N 37°10' E 002°22'1312.7
2015-Jun-09 22:33N 37°13' E 002°38'1612.5
2015-Jun-09 21:17N 37°16' E 002°58'1112.7
2015-Jun-09 20:25N 37°18' E 003°11'1112.9
2015-Jun-09 19:33N 37°20' E 003°25'1313.0
2015-Jun-09 18:31N 37°23' E 003°41'1313.1
2015-Jun-09 17:33N 37°26' E 003°57'  

Dump ship's entire track history